Bayberry, New York
Current Conditions -  °F | °C
As of 3:54 PM on Thursday 23 Oct 2014 (Local Time) from KSYR Reporting Station
Overcast Overcast  
Wind Chill: 53°   Ceiling: 3300
Heat Index: 53°   Visibility: 10mi
Dew Point: 41°   Wind: 16mph
Humidity: 64%   Direction: 320°NW
Pressure: 29.94"   Gusts: 26mph
Location:  43.1489°N, 76.2142°W
Report Text: KSYR 231954Z 32014G23KT 10SM OVC033 12/05 A2994 RMK AO2 RAE10 SLP136 P0000 T01170050
Loading
Personal Weather Stations






























Interactive Weather Map
Tropical Storm Tracking
New forecast layout! Learn more

10-Day Weather Forecast

Advertisements
Track Severe Weather on mobile